Time;durP1;ratioP1;P1;durP2;ratioP2;P2;SDS_P1;SDS_P2;PMS_P1;PMS_P2;Temp;Humidity;BMP_temperature;BMP_pressure;BME280_temperature;BME280_humidity;BME280_pressure;Samples;Min_cycle;Max_cycle;Signal;HPM_P1;HPM_P2
2021/10/18 00:00:52;;;;;;;16.05;11.02;;;11.00;99.90;;;;;;5064535;28;20070;-71
2021/10/18 00:03:19;;;;;;;14.77;10.85;;;11.00;99.90;;;;;;5032672;28;20111;-71
2021/10/18 00:05:44;;;;;;;17.42;10.90;;;11.00;99.90;;;;;;5052186;28;20037;-71
2021/10/18 00:08:11;;;;;;;14.20;10.95;;;11.00;99.90;;;;;;5045659;28;20635;-71
2021/10/18 00:10:36;;;;;;;12.43;10.13;;;11.00;99.90;;;;;;5049088;28;20049;-71
2021/10/18 00:13:02;;;;;;;16.92;12.18;;;11.00;99.90;;;;;;5048636;28;20044;-71
2021/10/18 00:15:28;;;;;;;14.80;10.85;;;11.00;99.90;;;;;;5049119;28;20040;-72
2021/10/18 00:17:55;;;;;;;13.68;10.85;;;11.00;99.90;;;;;;5048247;28;20040;-71
2021/10/18 00:20:23;;;;;;;13.20;10.63;;;11.00;99.90;;;;;;5031351;28;20511;-71
2021/10/18 00:22:49;;;;;;;16.65;11.60;;;10.90;99.90;;;;;;5048430;28;20123;-71
2021/10/18 00:25:15;;;;;;;14.40;11.23;;;10.90;99.90;;;;;;5047981;28;20158;-71
2021/10/18 00:27:41;;;;;;;13.13;11.57;;;11.00;99.90;;;;;;5047348;28;20049;-71
2021/10/18 00:30:07;;;;;;;15.15;12.02;;;10.90;99.90;;;;;;5046046;28;20110;-71
2021/10/18 00:32:34;;;;;;;15.93;11.77;;;10.90;99.90;;;;;;5047562;28;20051;-71
2021/10/18 00:34:59;;;;;;;16.17;12.27;;;10.90;99.90;;;;;;5048277;28;20055;-72
2021/10/18 00:37:25;;;;;;;17.17;11.93;;;10.90;99.90;;;;;;5031959;28;20048;-71
2021/10/18 00:39:51;;;;;;;15.93;11.57;;;10.90;99.90;;;;;;5051644;28;20495;-71
2021/10/18 00:42:17;;;;;;;15.00;11.95;;;10.90;99.90;;;;;;5050812;28;20068;-71
2021/10/18 00:44:43;;;;;;;16.25;12.63;;;10.90;99.90;;;;;;5051334;28;20772;-71
2021/10/18 00:47:15;;;;;;;15.43;12.38;;;10.80;99.90;;;;;;5034947;28;20047;-72
2021/10/18 00:49:41;;;;;;;16.67;13.23;;;10.80;99.90;;;;;;5049009;28;20098;-72
2021/10/18 00:52:07;;;;;;;17.25;12.30;;;10.90;99.90;;;;;;5050923;28;20047;-71
2021/10/18 00:54:33;;;;;;;16.67;12.32;;;10.80;99.90;;;;;;5050748;28;20045;-73
2021/10/18 00:56:59;;;;;;;15.77;13.32;;;10.80;99.90;;;;;;5048628;28;20080;-71
2021/10/18 00:59:25;;;;;;;13.88;12.18;;;10.80;99.90;;;;;;5033547;28;20068;-71
2021/10/18 01:01:51;;;;;;;16.25;13.45;;;10.80;99.90;;;;;;5033898;28;20052;-71
2021/10/18 01:04:18;;;;;;;16.83;13.45;;;10.80;99.90;;;;;;5031565;28;20111;-71
2021/10/18 01:06:44;;;;;;;20.50;12.85;;;10.80;99.90;;;;;;5051292;28;20074;-71
2021/10/18 01:09:10;;;;;;;16.65;13.13;;;10.80;99.90;;;;;;5033981;28;20048;-71
2021/10/18 01:11:36;;;;;;;15.38;12.85;;;10.80;99.90;;;;;;5051004;28;20094;-71
2021/10/18 01:14:05;;;;;;;16.17;13.77;;;10.80;99.90;;;;;;5051099;28;20041;-71
2021/10/18 01:16:31;;;;;;;18.08;13.65;;;10.80;99.90;;;;;;5050966;28;20094;-71
2021/10/18 01:18:56;;;;;;;15.88;13.35;;;10.80;99.90;;;;;;5050527;28;20450;-71
2021/10/18 01:21:22;;;;;;;14.88;13.10;;;10.70;99.90;;;;;;5050941;28;20521;-71
2021/10/18 01:23:48;;;;;;;16.95;12.15;;;10.70;99.90;;;;;;5049467;28;20041;-71
2021/10/18 01:26:14;;;;;;;18.05;12.98;;;10.70;99.90;;;;;;5050346;28;20407;-71
2021/10/18 01:28:39;;;;;;;18.73;13.43;;;10.70;99.90;;;;;;5034129;28;20046;-71
2021/10/18 01:31:05;;;;;;;17.85;13.80;;;10.70;99.90;;;;;;5049080;28;20105;-71
2021/10/18 01:33:31;;;;;;;18.00;13.85;;;10.70;99.90;;;;;;5050054;28;20051;-71
2021/10/18 01:35:57;;;;;;;14.80;11.63;;;10.70;99.90;;;;;;5049737;28;20056;-71
2021/10/18 01:38:23;;;;;;;15.48;12.77;;;10.70;99.90;;;;;;5035398;28;20044;-71
2021/10/18 01:40:48;;;;;;;16.55;13.13;;;10.70;99.90;;;;;;5051273;28;20048;-71
2021/10/18 01:43:14;;;;;;;19.55;13.80;;;10.60;99.90;;;;;;5050625;28;20270;-71
2021/10/18 01:45:40;;;;;;;15.80;13.32;;;10.70;99.90;;;;;;5033654;28;20052;-71
2021/10/18 01:48:06;;;;;;;18.83;12.73;;;10.60;99.90;;;;;;5034351;28;20049;-71
2021/10/18 01:50:32;;;;;;;16.25;13.98;;;10.60;99.90;;;;;;5047915;28;20090;-71
2021/10/18 01:52:58;;;;;;;18.05;14.82;;;10.60;99.90;;;;;;5048529;28;20060;-71
2021/10/18 01:55:24;;;;;;;16.42;14.02;;;10.60;99.90;;;;;;5047552;28;20052;-71
2021/10/18 01:57:51;;;;;;;17.88;14.35;;;10.60;99.90;;;;;;5050434;28;20101;-71
2021/10/18 02:00:17;;;;;;;18.23;13.52;;;10.60;99.90;;;;;;5046228;28;20137;-71
2021/10/18 02:02:43;;;;;;;17.23;13.98;;;10.60;99.90;;;;;;5066826;28;20044;-71
2021/10/18 02:05:10;;;;;;;18.58;14.50;;;10.60;99.90;;;;;;5030472;28;20045;-70
2021/10/18 02:07:36;;;;;;;19.20;14.60;;;10.70;99.90;;;;;;5033807;28;20047;-71
2021/10/18 02:10:05;;;;;;;19.33;14.25;;;10.70;99.90;;;;;;5048039;28;20028;-71
2021/10/18 02:12:34;;;;;;;18.40;14.25;;;10.70;99.90;;;;;;5032187;28;20497;-71
2021/10/18 02:15:00;;;;;;;16.83;14.65;;;10.70;99.90;;;;;;5049643;28;20066;-71
2021/10/18 02:17:26;;;;;;;16.88;14.77;;;10.70;99.90;;;;;;5049972;28;20102;-72
2021/10/18 02:19:51;;;;;;;19.17;14.13;;;10.70;99.90;;;;;;5033249;28;20072;-71
2021/10/18 02:22:17;;;;;;;18.95;14.68;;;10.60;99.90;;;;;;5032942;28;20040;-71
2021/10/18 02:24:43;;;;;;;18.95;15.45;;;10.60;99.90;;;;;;5048363;28;20094;-71
2021/10/18 02:27:09;;;;;;;21.88;15.30;;;10.60;99.90;;;;;;5049144;28;20063;-70
2021/10/18 02:29:35;;;;;;;17.75;15.50;;;10.60;99.90;;;;;;5049820;28;20141;-70
2021/10/18 02:32:00;;;;;;;18.80;14.60;;;10.50;99.90;;;;;;5048436;28;20554;-71
2021/10/18 02:34:26;;;;;;;21.73;14.70;;;10.50;99.90;;;;;;5046341;28;20055;-71
2021/10/18 02:36:52;;;;;;;19.75;14.50;;;10.40;99.90;;;;;;5032590;28;20127;-71
2021/10/18 02:39:18;;;;;;;19.55;15.50;;;10.30;99.90;;;;;;5031804;28;20093;-70
2021/10/18 02:41:43;;;;;;;20.65;15.98;;;10.30;99.90;;;;;;5044790;28;20041;-71
2021/10/18 02:44:09;;;;;;;21.02;15.43;;;10.20;99.90;;;;;;5032334;28;20043;-71
2021/10/18 02:46:38;;;;;;;19.38;16.15;;;10.20;99.90;;;;;;5048322;28;20047;-71
2021/10/18 02:49:04;;;;;;;17.95;14.98;;;10.10;99.90;;;;;;5047936;28;20049;-71
2021/10/18 02:51:30;;;;;;;19.05;16.17;;;10.00;99.90;;;;;;5032748;28;20687;-71
2021/10/18 02:53:55;;;;;;;18.55;13.80;;;10.00;99.90;;;;;;5046359;28;20499;-71
2021/10/18 02:56:21;;;;;;;19.98;16.48;;;9.90;99.90;;;;;;5048647;28;20115;-71
2021/10/18 02:58:47;;;;;;;18.88;15.07;;;9.90;99.90;;;;;;5047703;28;20048;-71
2021/10/18 03:01:13;;;;;;;20.90;16.48;;;9.80;99.90;;;;;;5056232;28;20037;-71
2021/10/18 03:03:41;;;;;;;22.90;15.93;;;9.80;99.90;;;;;;5048025;28;20048;-71
2021/10/18 03:06:07;;;;;;;18.35;14.75;;;9.70;99.90;;;;;;5032505;28;20533;-71
2021/10/18 03:08:33;;;;;;;18.58;14.52;;;9.70;99.90;;;;;;5048830;28;20075;-71
2021/10/18 03:10:59;;;;;;;22.35;16.35;;;9.70;99.90;;;;;;5032457;28;20090;-71
2021/10/18 03:13:25;;;;;;;20.75;17.33;;;9.70;99.90;;;;;;5048383;28;20045;-71
2021/10/18 03:15:50;;;;;;;21.17;17.05;;;9.60;99.90;;;;;;5030971;28;20118;-71
2021/10/18 03:18:16;;;;;;;22.00;18.00;;;9.50;99.90;;;;;;5031475;28;20055;-71
2021/10/18 03:20:42;;;;;;;23.05;17.85;;;9.50;99.90;;;;;;5030447;28;20553;-71
2021/10/18 03:23:08;;;;;;;21.65;17.27;;;9.50;99.90;;;;;;5029266;28;20044;-72
2021/10/18 03:25:36;;;;;;;21.30;17.73;;;9.50;99.90;;;;;;5049154;28;20044;-71
2021/10/18 03:28:03;;;;;;;20.25;17.77;;;9.50;99.90;;;;;;5031629;28;20036;-71
2021/10/18 03:30:30;;;;;;;22.15;19.60;;;9.40;99.90;;;;;;5031754;28;20109;-71
2021/10/18 03:32:56;;;;;;;22.92;20.52;;;9.40;99.90;;;;;;5046435;28;20079;-71
2021/10/18 03:35:22;;;;;;;22.58;19.75;;;9.40;99.90;;;;;;5046855;28;20045;-70
2021/10/18 03:37:48;;;;;;;23.00;18.30;;;9.40;99.90;;;;;;5048919;28;20041;-71
2021/10/18 03:40:14;;;;;;;23.00;19.75;;;9.30;99.90;;;;;;5048420;28;20109;-71
2021/10/18 03:42:40;;;;;;;21.55;19.25;;;9.30;99.90;;;;;;5049020;28;20048;-71
2021/10/18 03:45:07;;;;;;;21.50;18.35;;;9.30;99.90;;;;;;5046361;28;20499;-71
2021/10/18 03:47:33;;;;;;;24.02;20.23;;;9.30;99.90;;;;;;5049965;28;20140;-71
2021/10/18 03:49:59;;;;;;;27.23;21.15;;;9.30;99.90;;;;;;5032403;28;20115;-71
2021/10/18 03:52:25;;;;;;;25.33;20.75;;;9.30;99.90;;;;;;5032738;28;20072;-71
2021/10/18 03:54:51;;;;;;;23.33;20.27;;;9.20;99.90;;;;;;5048948;28;20068;-71
2021/10/18 03:57:17;;;;;;;21.67;19.38;;;9.30;99.90;;;;;;5032924;28;20044;-71
2021/10/18 03:59:43;;;;;;;25.58;21.95;;;9.20;99.90;;;;;;5048384;28;20486;-71
2021/10/18 04:02:09;;;;;;;22.08;19.65;;;9.20;99.90;;;;;;5027796;28;20078;-71
2021/10/18 04:04:36;;;;;;;25.05;22.33;;;9.10;99.90;;;;;;5049602;28;20052;-71
2021/10/18 04:07:02;;;;;;;22.65;18.95;;;9.10;99.90;;;;;;5067049;28;20056;-72
2021/10/18 04:09:28;;;;;;;26.00;22.30;;;9.10;99.90;;;;;;5067889;28;20380;-71
2021/10/18 04:11:54;;;;;;;22.38;20.00;;;9.10;99.90;;;;;;5050824;28;20143;-71
2021/10/18 04:14:20;;;;;;;26.52;21.60;;;9.10;99.90;;;;;;5069709;28;20044;-72
2021/10/18 04:16:46;;;;;;;22.88;20.55;;;9.10;99.90;;;;;;5038200;28;20055;-71
2021/10/18 04:19:12;;;;;;;28.40;24.05;;;9.00;99.90;;;;;;5053127;28;20049;-72
2021/10/18 04:21:38;;;;;;;23.35;20.85;;;9.00;99.90;;;;;;5033990;28;20045;-71
2021/10/18 04:24:04;;;;;;;25.02;22.05;;;9.00;99.90;;;;;;5016878;28;20484;-71
2021/10/18 04:26:29;;;;;;;24.60;22.00;;;9.10;99.90;;;;;;5017618;28;20094;-72
2021/10/18 04:28:55;;;;;;;24.35;21.83;;;9.10;99.90;;;;;;5050100;28;20679;-71
2021/10/18 04:31:22;;;;;;;24.60;21.98;;;9.10;99.90;;;;;;5016675;28;20487;-72
2021/10/18 04:33:48;;;;;;;22.30;20.00;;;9.10;99.90;;;;;;5033083;28;20139;-72
2021/10/18 04:36:14;;;;;;;25.55;22.88;;;9.10;99.90;;;;;;5032795;28;20175;-72
2021/10/18 04:38:39;;;;;;;27.75;23.25;;;9.10;99.90;;;;;;5033498;28;20071;-72
2021/10/18 04:41:06;;;;;;;26.17;23.48;;;9.10;99.90;;;;;;5032341;28;20557;-72
2021/10/18 04:43:34;;;;;;;25.48;21.23;;;9.10;99.90;;;;;;5050561;28;20455;-71
2021/10/18 04:46:00;;;;;;;24.90;22.30;;;9.20;99.90;;;;;;5052948;28;20401;-72
2021/10/18 04:48:26;;;;;;;26.23;22.60;;;9.20;99.90;;;;;;5051589;28;20037;-72
2021/10/18 04:50:52;;;;;;;25.48;22.75;;;9.20;99.90;;;;;;5023759;28;20036;-72
2021/10/18 04:53:18;;;;;;;26.42;22.90;;;9.20;99.90;;;;;;5032218;28;20060;-71
2021/10/18 04:55:43;;;;;;;24.35;21.65;;;9.20;99.90;;;;;;5016975;28;20061;-72
2021/10/18 04:58:09;;;;;;;25.13;22.42;;;9.20;99.90;;;;;;5048938;28;20049;-72
2021/10/18 05:00:42;;;;;;;25.23;21.45;;;9.20;99.90;;;;;;5066295;28;20173;-71
2021/10/18 05:03:07;;;;;;;27.58;23.48;;;9.20;99.90;;;;;;5050921;28;20054;-71
2021/10/18 05:05:35;;;;;;;28.27;24.63;;;9.20;99.90;;;;;;5036392;28;20049;-71
2021/10/18 05:08:09;;;;;;;28.33;25.42;;;9.20;99.90;;;;;;5036320;28;20072;-72
2021/10/18 05:10:37;;;;;;;28.73;25.73;;;9.20;99.90;;;;;;5069580;28;20052;-71
2021/10/18 05:13:04;;;;;;;29.45;25.63;;;9.20;99.90;;;;;;5052391;28;20051;-72
2021/10/18 05:15:30;;;;;;;31.15;27.38;;;9.20;99.90;;;;;;5053162;28;20048;-72
2021/10/18 05:18:00;;;;;;;29.77;26.23;;;9.20;99.90;;;;;;5052412;28;20056;-72
2021/10/18 05:20:30;;;;;;;27.23;24.33;;;9.20;99.90;;;;;;5052145;28;20089;-72
2021/10/18 05:22:57;;;;;;;29.50;25.80;;;9.20;99.90;;;;;;5052662;28;20044;-72
2021/10/18 05:25:23;;;;;;;26.70;23.90;;;9.20;99.90;;;;;;5051480;28;20495;-72
2021/10/18 05:27:49;;;;;;;28.15;25.13;;;9.30;99.90;;;;;;5052625;28;20053;-72
2021/10/18 05:30:19;;;;;;;30.27;27.10;;;9.20;99.90;;;;;;5035197;28;20051;-72
2021/10/18 05:32:46;;;;;;;28.03;25.03;;;9.30;99.90;;;;;;5047795;28;20048;-72
2021/10/18 05:35:11;;;;;;;29.13;26.08;;;9.30;99.90;;;;;;5064782;28;20048;-72
2021/10/18 05:37:42;;;;;;;30.80;26.42;;;9.30;99.90;;;;;;5066176;28;20098;-72
2021/10/18 05:40:09;;;;;;;31.80;26.23;;;9.30;99.90;;;;;;5064739;28;20036;-72
2021/10/18 05:42:35;;;;;;;29.75;25.45;;;9.30;99.90;;;;;;5052027;28;20053;-71
2021/10/18 05:45:00;;;;;;;29.30;26.23;;;9.30;99.90;;;;;;5034841;28;20048;-71
2021/10/18 05:47:26;;;;;;;30.48;27.33;;;9.20;99.90;;;;;;5035444;28;20036;-72
2021/10/18 05:49:52;;;;;;;32.13;28.45;;;9.20;99.90;;;;;;5032547;28;20707;-72
2021/10/18 05:52:18;;;;;;;31.52;27.88;;;9.20;99.90;;;;;;5031928;28;20499;-72
2021/10/18 05:54:44;;;;;;;31.38;27.83;;;9.20;99.90;;;;;;5032185;28;20045;-72
2021/10/18 05:57:10;;;;;;;33.20;29.67;;;9.20;99.90;;;;;;5031861;28;20037;-72
2021/10/18 05:59:37;;;;;;;31.05;27.85;;;9.20;99.90;;;;;;5041648;28;20044;-72
2021/10/18 06:02:04;;;;;;;31.92;27.30;;;9.20;99.90;;;;;;5051093;28;20565;-71
2021/10/18 06:04:30;;;;;;;31.52;27.73;;;9.20;99.90;;;;;;5067711;28;20136;-72
2021/10/18 06:06:56;;;;;;;32.47;28.92;;;9.10;99.90;;;;;;5052383;28;20136;-72
2021/10/18 06:09:22;;;;;;;33.03;29.45;;;9.10;99.90;;;;;;5068127;28;20036;-72
2021/10/18 06:11:47;;;;;;;33.38;29.15;;;9.20;99.90;;;;;;5052375;28;20101;-72
2021/10/18 06:14:13;;;;;;;33.33;29.75;;;9.20;99.90;;;;;;5067615;28;20055;-72
2021/10/18 06:16:39;;;;;;;33.50;28.00;;;9.20;99.90;;;;;;5051946;28;20040;-72
2021/10/18 06:19:05;;;;;;;32.00;28.38;;;9.20;99.90;;;;;;5068291;28;20044;-72
2021/10/18 06:21:31;;;;;;;32.83;29.08;;;9.30;99.90;;;;;;5068073;28;20139;-71
2021/10/18 06:23:56;;;;;;;30.95;27.73;;;9.30;99.90;;;;;;5050959;28;20052;-71
2021/10/18 06:26:22;;;;;;;30.85;27.60;;;9.40;99.90;;;;;;5050558;28;20040;-71
2021/10/18 06:28:48;;;;;;;32.75;29.00;;;9.40;99.90;;;;;;5050985;28;20044;-71
2021/10/18 06:31:14;;;;;;;30.13;27.00;;;9.40;99.90;;;;;;5027069;28;20045;-71
2021/10/18 06:33:39;;;;;;;31.30;27.52;;;9.40;99.90;;;;;;5031475;28;20055;-71
2021/10/18 06:36:08;;;;;;;31.27;27.35;;;9.40;99.90;;;;;;5030473;28;20130;-71
2021/10/18 06:38:34;;;;;;;30.40;26.70;;;9.40;99.90;;;;;;5031453;28;20507;-72
2021/10/18 06:41:00;;;;;;;32.38;28.30;;;9.40;99.90;;;;;;5031314;28;20053;-71
2021/10/18 06:43:26;;;;;;;30.70;27.52;;;9.40;99.90;;;;;;5047058;28;20036;-71
2021/10/18 06:45:52;;;;;;;30.70;26.42;;;9.40;99.90;;;;;;5050804;28;20076;-71
2021/10/18 06:48:17;;;;;;;30.52;26.75;;;9.40;99.90;;;;;;5033327;28;20072;-71
2021/10/18 06:50:45;;;;;;;32.42;28.73;;;9.40;99.90;;;;;;5034680;28;20040;-71
2021/10/18 06:53:16;;;;;;;31.52;26.95;;;9.40;99.90;;;;;;5033601;28;20384;-71
2021/10/18 06:55:42;;;;;;;28.65;25.70;;;9.40;99.90;;;;;;5050633;28;20053;-71
2021/10/18 06:58:08;;;;;;;28.85;25.45;;;9.40;99.90;;;;;;5050702;28;20048;-71
2021/10/18 07:00:35;;;;;;;29.55;26.45;;;9.40;99.90;;;;;;5049418;28;20052;-71
2021/10/18 07:03:02;;;;;;;30.65;26.10;;;9.40;99.90;;;;;;5034338;28;20048;-71
2021/10/18 07:05:28;;;;;;;29.42;26.23;;;9.50;99.90;;;;;;5032573;28;20863;-71
2021/10/18 07:07:54;;;;;;;29.08;26.00;;;9.60;99.90;;;;;;5050908;28;20052;-71
2021/10/18 07:10:19;;;;;;;29.10;26.00;;;9.60;99.90;;;;;;5033379;28;20063;-72
2021/10/18 07:12:45;;;;;;;30.33;27.02;;;9.60;99.90;;;;;;5050701;28;20566;-72
2021/10/18 07:15:11;;;;;;;31.75;25.60;;;9.80;99.90;;;;;;5045929;28;20155;-72
2021/10/18 07:17:37;;;;;;;29.92;24.88;;;9.90;99.90;;;;;;5032577;28;20414;-72
2021/10/18 07:20:05;;;;;;;30.35;27.08;;;10.00;99.90;;;;;;5048362;28;20029;-72
2021/10/18 07:22:41;;;;;;;29.83;26.65;;;10.00;99.90;;;;;;5047350;28;20553;-72
2021/10/18 07:25:09;;;;;;;30.20;26.92;;;10.10;99.90;;;;;;5031921;28;20052;-72
2021/10/18 07:27:36;;;;;;;29.20;24.50;;;10.20;99.90;;;;;;5046785;28;20029;-72
2021/10/18 07:30:03;;;;;;;29.65;26.50;;;10.20;99.90;;;;;;5032421;28;20051;-72
2021/10/18 07:32:28;;;;;;;30.80;26.83;;;10.30;99.90;;;;;;5029031;28;20074;-72
2021/10/18 07:34:57;;;;;;;30.20;27.00;;;10.40;99.90;;;;;;5031616;28;20523;-71
2021/10/18 07:37:26;;;;;;;28.45;25.10;;;10.50;99.90;;;;;;5031649;28;20052;-71
2021/10/18 07:39:52;;;;;;;28.40;25.58;;;10.50;99.90;;;;;;5048771;28;20056;-71
2021/10/18 07:42:18;;;;;;;29.83;25.00;;;10.60;99.90;;;;;;5032320;28;20036;-71
2021/10/18 07:44:44;;;;;;;29.77;26.45;;;10.60;99.90;;;;;;5049560;28;20040;-71
2021/10/18 07:47:11;;;;;;;31.77;27.10;;;10.70;99.90;;;;;;5032288;28;20032;-71
2021/10/18 07:49:40;;;;;;;27.90;24.75;;;10.70;99.90;;;;;;5035964;28;20056;-72
2021/10/18 07:52:11;;;;;;;27.23;24.15;;;10.80;99.90;;;;;;5052938;28;20048;-72
2021/10/18 07:54:41;;;;;;;31.70;26.70;;;10.80;99.90;;;;;;5052577;28;20091;-72
2021/10/18 07:57:07;;;;;;;28.08;25.05;;;10.90;99.90;;;;;;5052405;28;20054;-72
2021/10/18 07:59:33;;;;;;;27.38;24.45;;;10.90;99.90;;;;;;5051071;28;20033;-72
2021/10/18 08:01:59;;;;;;;28.50;25.40;;;11.00;99.90;;;;;;5051937;28;20056;-72
2021/10/18 08:04:26;;;;;;;29.20;26.15;;;11.00;99.90;;;;;;5051354;28;20383;-71
2021/10/18 08:06:51;;;;;;;31.15;25.90;;;11.00;99.90;;;;;;5034241;28;20059;-71
2021/10/18 08:09:17;;;;;;;29.55;25.13;;;11.10;99.90;;;;;;5052297;28;20426;-71
2021/10/18 08:11:43;;;;;;;29.80;26.17;;;11.10;99.90;;;;;;5035898;28;20043;-71
2021/10/18 08:14:09;;;;;;;28.02;25.23;;;11.10;99.90;;;;;;5051859;28;20441;-72
2021/10/18 08:16:34;;;;;;;29.65;26.52;;;11.10;99.90;;;;;;5035536;28;20072;-71
2021/10/18 08:19:00;;;;;;;29.38;26.15;;;11.10;99.90;;;;;;5050785;28;20403;-71
2021/10/18 08:21:26;;;;;;;30.60;27.02;;;11.10;99.90;;;;;;5033430;28;20041;-71
2021/10/18 08:23:52;;;;;;;30.23;26.98;;;11.10;99.90;;;;;;5052462;28;20418;-71
2021/10/18 08:26:18;;;;;;;32.92;26.75;;;11.20;99.90;;;;;;5051300;28;20041;-71
2021/10/18 08:28:44;;;;;;;29.10;25.98;;;11.20;99.90;;;;;;5052286;28;20123;-71
2021/10/18 08:31:09;;;;;;;31.27;26.92;;;11.20;99.90;;;;;;5050553;28;20487;-71
2021/10/18 08:33:36;;;;;;;28.85;25.52;;;11.20;99.90;;;;;;5049601;28;20045;-72
2021/10/18 08:36:05;;;;;;;31.35;26.63;;;11.20;99.90;;;;;;5034903;28;20101;-71
2021/10/18 08:38:46;;;;;;;30.30;27.02;;;11.30;99.90;;;;;;5051581;28;20048;-71
2021/10/18 08:41:22;;;;;;;32.70;28.80;;;11.30;99.90;;;;;;5049070;28;20438;-72
2021/10/18 08:46:32;;;;;;;29.58;26.38;;;11.40;99.90;;;;;;5051386;28;20459;-71
2021/10/18 08:48:58;;;;;;;33.78;28.15;;;11.40;99.90;;;;;;5033164;28;20084;-71
2021/10/18 08:51:26;;;;;;;29.80;26.13;;;11.40;99.90;;;;;;5034733;28;20132;-71
2021/10/18 08:53:52;;;;;;;30.75;27.50;;;11.40;99.90;;;;;;5051699;28;20585;-71
2021/10/18 08:56:18;;;;;;;31.45;28.17;;;11.50;99.90;;;;;;5047732;28;20064;-71
2021/10/18 08:58:44;;;;;;;31.92;26.95;;;11.50;99.90;;;;;;5051153;28;20079;-72
2021/10/18 09:01:11;;;;;;;30.63;26.95;;;11.60;99.90;;;;;;5032332;28;20040;-71
2021/10/18 09:03:37;;;;;;;28.73;25.63;;;11.60;99.90;;;;;;5050620;28;20111;-72
2021/10/18 09:06:23;;;;;;;30.55;26.83;;;11.70;99.90;;;;;;5050631;28;20132;-71
2021/10/18 09:08:55;;;;;;;32.08;27.02;;;11.70;99.90;;;;;;5033244;28;20491;-71
2021/10/18 09:11:26;;;;;;;30.92;27.10;;;11.80;99.90;;;;;;5045939;28;20064;-70
2021/10/18 09:13:57;;;;;;;29.58;26.25;;;11.80;99.90;;;;;;5045122;28;20060;-70
2021/10/18 09:16:38;;;;;;;30.65;27.33;;;11.90;99.90;;;;;;5048604;28;20036;-70
2021/10/18 09:19:17;;;;;;;65.40;49.72;;;11.90;99.90;;;;;;5048548;28;20047;-70
2021/10/18 09:21:43;;;;;;;30.60;26.40;;;12.00;99.90;;;;;;5059082;28;20658;-71
2021/10/18 09:24:11;;;;;;;30.42;27.15;;;12.10;99.90;;;;;;5026309;28;20051;-71
2021/10/18 09:26:39;;;;;;;31.83;27.60;;;12.10;99.90;;;;;;5032734;28;20071;-71
2021/10/18 09:29:07;;;;;;;29.75;26.58;;;12.20;99.90;;;;;;5031995;28;20434;-71
2021/10/18 09:31:34;;;;;;;28.98;25.88;;;12.30;99.90;;;;;;5044395;28;20492;-71
2021/10/18 09:34:12;;;;;;;30.73;26.88;;;12.30;99.90;;;;;;5048003;28;20136;-71
2021/10/18 09:36:40;;;;;;;29.73;26.08;;;12.40;99.90;;;;;;5047726;28;20126;-71
2021/10/18 09:39:28;;;;;;;30.45;25.77;;;12.40;99.90;;;;;;5049723;28;20656;-71
2021/10/18 09:42:06;;;;;;;31.15;26.65;;;12.50;99.90;;;;;;5049193;28;20071;-71
2021/10/18 10:53:31;;;;;;;25.77;21.63;;;13.40;99.90;;;;;;5045206;28;20076;-72
2021/10/18 10:56:17;;;;;;;26.80;22.52;;;13.40;99.90;;;;;;5029570;28;20059;-72
2021/10/18 10:58:51;;;;;;;26.23;22.05;;;13.50;99.90;;;;;;5050241;28;20040;-72
2021/10/18 11:01:38;;;;;;;26.45;23.02;;;13.50;99.90;;;;;;5032668;28;20518;-72
2021/10/18 11:04:33;;;;;;;24.50;21.42;;;13.60;99.90;;;;;;5026221;28;20416;-73
2021/10/18 11:07:03;;;;;;;24.63;21.75;;;13.70;99.90;;;;;;5064769;28;20056;-72
2021/10/18 11:09:48;;;;;;;28.25;23.10;;;13.70;99.90;;;;;;5046876;28;20054;-72
2021/10/18 11:12:17;;;;;;;29.38;23.48;;;13.70;99.90;;;;;;5028580;28;20541;-73
2021/10/18 11:15:25;;;;;;;25.67;22.25;;;13.80;99.90;;;;;;5067902;28;20056;-72
2021/10/18 11:17:54;;;;;;;22.38;19.63;;;13.90;99.90;;;;;;5045847;28;20060;-73
2021/10/18 11:20:27;;;;;;;24.13;18.92;;;14.00;99.90;;;;;;5034155;28;20047;-73
2021/10/18 11:22:57;;;;;;;25.20;19.85;;;14.00;99.90;;;;;;5049247;28;20193;-73
2021/10/18 11:25:26;;;;;;;24.88;20.23;;;14.10;99.90;;;;;;5050020;28;20045;-73
2021/10/18 11:27:55;;;;;;;24.27;20.05;;;14.10;99.90;;;;;;5034274;28;20049;-72
2021/10/18 11:30:23;;;;;;;25.45;20.25;;;14.10;99.90;;;;;;5033805;28;20099;-73
2021/10/18 11:33:04;;;;;;;21.08;17.60;;;14.10;99.90;;;;;;5036078;28;20044;-72
2021/10/18 11:35:35;;;;;;;25.52;19.63;;;14.20;99.90;;;;;;5032056;28;20028;-73
2021/10/18 11:38:12;;;;;;;20.95;17.73;;;14.20;99.90;;;;;;5063384;28;20091;-73
2021/10/18 11:40:48;;;;;;;20.35;17.42;;;14.20;99.90;;;;;;5048203;28;20044;-73
2021/10/18 11:43:16;;;;;;;20.30;16.88;;;14.20;99.90;;;;;;5030630;28;20086;-73
2021/10/18 11:45:44;;;;;;;18.52;16.02;;;14.30;99.90;;;;;;5038948;28;20057;-73
2021/10/18 11:48:14;;;;;;;19.05;15.57;;;14.30;99.90;;;;;;5049431;28;20072;-72
2021/10/18 11:50:43;;;;;;;20.70;16.73;;;14.40;99.90;;;;;;5049456;28;20082;-72
2021/10/18 11:53:22;;;;;;;21.35;17.65;;;14.40;99.90;;;;;;5034555;28;20061;-72
2021/10/18 11:55:52;;;;;;;21.88;19.58;;;14.50;99.90;;;;;;5046727;28;20566;-72
2021/10/18 11:58:24;;;;;;;23.40;17.90;;;14.50;99.90;;;;;;5061971;28;20147;-73
2021/10/18 12:01:05;;;;;;;23.52;18.98;;;14.50;99.90;;;;;;5049111;28;20044;-72
2021/10/18 12:03:33;;;;;;;21.60;18.73;;;14.50;99.90;;;;;;5045134;28;20400;-73
2021/10/18 12:06:02;;;;;;;21.77;18.90;;;14.50;99.90;;;;;;5030129;28;20048;-72
2021/10/18 12:08:30;;;;;;;22.08;19.23;;;14.50;99.90;;;;;;5046329;28;20510;-73
2021/10/18 12:10:57;;;;;;;20.38;17.92;;;14.50;99.90;;;;;;5045224;28;20048;-72
2021/10/18 12:13:27;;;;;;;21.60;17.77;;;14.50;99.90;;;;;;5046434;28;20044;-71
2021/10/18 12:16:05;;;;;;;21.23;18.15;;;14.40;99.90;;;;;;5043669;28;20823;-71
2021/10/18 12:18:48;;;;;;;20.80;18.50;;;14.40;99.90;;;;;;5041840;28;20044;-72
2021/10/18 12:21:25;;;;;;;20.73;18.42;;;14.40;99.90;;;;;;5072818;28;20087;-71
2021/10/18 12:23:54;;;;;;;22.10;18.60;;;14.50;99.90;;;;;;5033992;28;20049;-72
2021/10/18 12:26:28;;;;;;;21.27;16.80;;;14.50;99.90;;;;;;5048855;28;20119;-72
2021/10/18 12:28:59;;;;;;;21.27;17.77;;;14.50;99.90;;;;;;5051137;28;20076;-71
2021/10/18 12:31:40;;;;;;;20.95;17.92;;;14.50;99.90;;;;;;5048613;28;20040;-72
2021/10/18 12:34:07;;;;;;;22.10;17.88;;;14.60;99.90;;;;;;5032776;28;20081;-72
2021/10/18 12:37:15;;;;;;;21.05;17.17;;;14.60;99.90;;;;;;5056476;28;20066;-72
2021/10/18 12:40:02;;;;;;;19.58;17.55;;;14.70;99.90;;;;;;4990739;28;20125;-72
2021/10/18 12:42:28;;;;;;;21.83;17.30;;;14.70;99.90;;;;;;5054722;28;20048;-72
2021/10/18 12:45:08;;;;;;;22.33;18.52;;;14.70;99.90;;;;;;5053921;28;20071;-72
2021/10/18 12:47:36;;;;;;;;;;;14.80;99.90;;;;;;5055984;28;20056;-72
2021/10/18 12:50:08;;;;;;;22.42;17.30;;;14.80;99.90;;;;;;5030615;28;20029;-72
2021/10/18 12:52:39;;;;;;;20.65;17.70;;;14.80;99.90;;;;;;5050314;28;20048;-72
2021/10/18 12:55:20;;;;;;;21.77;16.65;;;14.80;99.90;;;;;;5065057;28;20048;-72
2021/10/18 12:58:05;;;;;;;22.17;16.45;;;14.90;99.90;;;;;;5049434;28;20097;-73
2021/10/18 13:00:39;;;;;;;20.13;15.32;;;14.80;99.90;;;;;;5065849;28;20045;-73
2021/10/18 13:03:10;;;;;;;20.15;15.27;;;14.80;99.00;;;;;;5043761;28;20060;-72
2021/10/18 13:05:49;;;;;;;19.25;15.88;;;14.80;99.00;;;;;;5031576;28;20076;-71
2021/10/18 13:08:23;;;;;;;18.75;15.15;;;14.70;99.00;;;;;;5054991;28;20060;-71
2021/10/18 13:10:51;;;;;;;17.08;15.05;;;14.70;99.60;;;;;;5049213;28;20053;-71
2021/10/18 13:13:23;;;;;;;20.08;15.32;;;14.70;99.80;;;;;;5062817;28;20134;-71
2021/10/18 13:15:51;;;;;;;16.98;15.13;;;14.70;99.90;;;;;;5034867;28;20044;-71
2021/10/18 13:18:17;;;;;;;18.90;15.25;;;14.70;99.90;;;;;;5048232;28;20454;-71
2021/10/18 13:20:44;;;;;;;17.80;14.77;;;14.70;99.70;;;;;;5039016;28;20045;-71
2021/10/18 13:23:15;;;;;;;20.20;17.17;;;14.70;99.90;;;;;;5057209;28;20057;-71
2021/10/18 13:25:43;;;;;;;17.65;13.63;;;14.70;99.90;;;;;;5041809;28;20037;-71
2021/10/18 13:28:10;;;;;;;17.80;14.35;;;14.70;99.90;;;;;;5043960;28;20512;-71
2021/10/18 13:30:37;;;;;;;18.23;15.00;;;14.70;99.90;;;;;;5023092;28;20426;-71
2021/10/18 13:33:04;;;;;;;17.08;13.75;;;14.80;99.90;;;;;;5056536;28;20048;-71
2021/10/18 13:35:31;;;;;;;18.00;14.32;;;14.80;99.90;;;;;;5065335;28;20048;-71
2021/10/18 13:37:59;;;;;;;17.17;13.70;;;14.70;99.90;;;;;;5062506;28;20111;-71
2021/10/18 13:40:27;;;;;;;19.30;14.38;;;14.80;99.90;;;;;;5048426;28;20052;-72
2021/10/18 13:42:53;;;;;;;16.15;14.45;;;14.70;99.90;;;;;;5046756;28;20055;-71
2021/10/18 13:45:20;;;;;;;19.67;16.27;;;14.70;99.90;;;;;;5025996;28;20100;-71
2021/10/18 13:47:47;;;;;;;18.83;14.50;;;14.80;99.90;;;;;;5029084;28;20130;-71